地図

経路データ

SID SEASON NUMBER BASIN SUBBASIN NAME ISO_TIME NATURE LAT LON WMO_WIND WMO_PRES WMO_AGENCY TRACK_TYPE DIST2LAND LANDFALL IFLAG USA_AGENCY USA_ATCF_ID USA_LAT USA_LON USA_RECORD USA_STATUS USA_WIND USA_PRES USA_SSHS USA_R34_NE USA_R34_SE USA_R34_SW USA_R34_NW USA_R50_NE USA_R50_SE USA_R50_SW USA_R50_NW USA_R64_NE USA_R64_SE USA_R64_SW USA_R64_NW USA_POCI USA_ROCI USA_RMW USA_EYE TOKYO_LAT TOKYO_LON TOKYO_GRADE TOKYO_WIND TOKYO_PRES TOKYO_R50_DIR TOKYO_R50_LONG TOKYO_R50_SHORT TOKYO_R30_DIR TOKYO_R30_LONG TOKYO_R30_SHORT TOKYO_LAND CMA_LAT CMA_LON CMA_CAT CMA_WIND CMA_PRES HKO_LAT HKO_LON HKO_CAT HKO_WIND HKO_PRES NEWDELHI_LAT NEWDELHI_LON NEWDELHI_GRADE NEWDELHI_WIND NEWDELHI_PRES NEWDELHI_CI NEWDELHI_DP NEWDELHI_POCI REUNION_LAT REUNION_LON REUNION_TYPE REUNION_WIND REUNION_PRES REUNION_TNUM REUNION_CI REUNION_RMW REUNION_R34_NE REUNION_R34_SE REUNION_R34_SW REUNION_R34_NW REUNION_R50_NE REUNION_R50_SE REUNION_R50_SW REUNION_R50_NW REUNION_R64_NE REUNION_R64_SE REUNION_R64_SW REUNION_R64_NW BOM_LAT BOM_LON BOM_TYPE BOM_WIND BOM_PRES BOM_TNUM BOM_CI BOM_RMW BOM_R34_NE BOM_R34_SE BOM_R34_SW BOM_R34_NW BOM_R50_NE BOM_R50_SE BOM_R50_SW BOM_R50_NW BOM_R64_NE BOM_R64_SE BOM_R64_SW BOM_R64_NW BOM_ROCI BOM_POCI BOM_EYE BOM_POS_METHOD BOM_PRES_METHOD NADI_LAT NADI_LON NADI_CAT NADI_WIND NADI_PRES WELLINGTON_LAT WELLINGTON_LON WELLINGTON_WIND WELLINGTON_PRES DS824_LAT DS824_LON DS824_STAGE DS824_WIND DS824_PRES TD9636_LAT TD9636_LON TD9636_STAGE TD9636_WIND TD9636_PRES TD9635_LAT TD9635_LON TD9635_WIND TD9635_PRES TD9635_ROCI NEUMANN_LAT NEUMANN_LON NEUMANN_CLASS NEUMANN_WIND NEUMANN_PRES MLC_LAT MLC_LON MLC_CLASS MLC_WIND MLC_PRES USA_GUST BOM_GUST BOM_GUST_PER REUNION_GUST REUNION_GUST_PER USA_SEAHGT USA_SEARAD_NE USA_SEARAD_SE USA_SEARAD_SW USA_SEARAD_NW STORM_SPEED STORM_DIR
1984262N14259 1984 83 EP MM ODILE 1984-09-17 18:00:00 TS 14.3000 -101.500 30 hurdat_epa main 330 327 O_________O___ hurdat_epa EP161984 14.3000 -101.500 TD 30 -1 14.3000 -101.500 1 30 7 287
1984262N14259 1984 83 EP MM ODILE 1984-09-17 21:00:00 TS 14.4009 -101.849 main 331 327 P_________P___ EP161984 14.4026 -101.850 TD 32 -1 14.3958 -101.846 1 32 7 286
1984262N14259 1984 83 EP MM ODILE 1984-09-18 00:00:00 TS 14.5000 -102.200 35 hurdat_epa main 334 332 O_________O___ hurdat_epa EP161984 14.5000 -102.200 TS 35 0 14.5000 -102.200 2 35 7 286
1984262N14259 1984 83 EP MM ODILE 1984-09-18 03:00:00 TS 14.5990 -102.554 main 342 337 P_________P___ EP161984 14.5924 -102.550 TS 35 0 14.6187 -102.567 2 35 7 287
1984262N14259 1984 83 EP MM ODILE 1984-09-18 06:00:00 TS 14.7117 -102.909 35 hurdat_epa main 348 345 O_________P___ hurdat_epa EP161984 14.7000 -102.900 TS 35 0 14.7467 -102.934 2 35 7 290
1984262N14259 1984 83 EP MM ODILE 1984-09-18 09:00:00 TS 14.8566 -103.270 main 352 348 P_________P___ EP161984 14.8500 -103.265 TS 35 0 14.8764 -103.284 2 35 7 293
1984262N14259 1984 83 EP MM ODILE 1984-09-18 12:00:00 TS 15.0000 -103.600 35 hurdat_epa main 352 345 O_________O___ hurdat_epa EP161984 15.0000 -103.600 TS 35 0 15.0000 -103.600 2 35 6 293
1984262N14259 1984 83 EP MM ODILE 1984-09-18 15:00:00 TS 15.1053 -103.874 main 352 345 P_________P___ EP161984 15.1074 -103.873 TS 37 0 15.0989 -103.877 2 37 5 292
1984262N14259 1984 83 EP MM ODILE 1984-09-18 18:00:00 TS 15.1981 -104.104 40 hurdat_epa main 348 341 O_________P___ hurdat_epa EP161984 15.2000 -104.100 TS 40 0 15.1923 -104.118 2 40 5 294
1984262N14259 1984 83 EP MM ODILE 1984-09-18 21:00:00 TS 15.2917 -104.312 main 345 338 P_________P___ EP161984 15.2925 -104.308 TS 42 0 15.2896 -104.324 2 42 4 298
1984262N14259 1984 83 EP MM ODILE 1984-09-19 00:00:00 TS 15.4000 -104.500 45 hurdat_epa main 341 334 O_________O___ hurdat_epa EP161984 15.4000 -104.500 TS 45 0 15.4000 -104.500 2 45 5 303
1984262N14259 1984 83 EP MM ODILE 1984-09-19 03:00:00 TS 15.5418 -104.715 main 338 322 P_________P___ EP161984 15.5425 -104.722 TS 47 0 15.5396 -104.694 2 47 5 308
1984262N14259 1984 83 EP MM ODILE 1984-09-19 06:00:00 TS 15.6981 -104.889 50 hurdat_epa main 326 316 O_________P___ hurdat_epa EP161984 15.7000 -104.900 TS 50 0 15.6924 -104.855 2 50 4 319
1984262N14259 1984 83 EP MM ODILE 1984-09-19 09:00:00 TS 15.8497 -104.993 main 322 302 P_________P___ EP161984 15.8500 -105.002 TS 52 0 15.8490 -104.963 2 52 3 341
1984262N14259 1984 83 EP MM ODILE 1984-09-19 12:00:00 TS 16.0000 -105.000 55 hurdat_epa main 302 287 O_________O___ hurdat_epa EP161984 16.0000 -105.000 TS 55 0 16.0000 -105.000 2 55 3 18
1984262N14259 1984 83 EP MM ODILE 1984-09-19 15:00:00 TS 16.1552 -104.895 main 278 257 P_________P___ EP161984 16.1575 -104.873 TS 55 0 16.1484 -104.963 2 57 4 40
1984262N14259 1984 83 EP MM ODILE 1984-09-19 18:00:00 TS 16.2968 -104.739 55 hurdat_epa main 257 242 O_________P___ hurdat_epa EP161984 16.3000 -104.700 TS 55 0 16.2874 -104.855 2 60 4 45
1984262N14259 1984 83 EP MM ODILE 1984-09-19 21:00:00 TS 16.4131 -104.629 main 242 227 P_________P___ EP161984 16.4150 -104.607 TS 60 0 16.4077 -104.695 2 62 3 48
1984262N14259 1984 83 EP MM ODILE 1984-09-20 00:00:00 TS 16.5000 -104.500 65 hurdat_epa main 227 208 O_________O___ hurdat_epa EP161984 16.5000 -104.500 HU 65 1 16.5000 -104.500 3 65 3 63
1984262N14259 1984 83 EP MM ODILE 1984-09-20 03:00:00 TS 16.5632 -104.319 main 208 200 P_________P___ EP161984 16.5650 -104.323 HU 65 1 16.5578 -104.308 3 65 4 76
1984262N14259 1984 83 EP MM ODILE 1984-09-20 06:00:00 TS 16.5969 -104.097 65 hurdat_epa main 200 193 O_________P___ hurdat_epa EP161984 16.6000 -104.100 HU 65 1 16.5875 -104.087 3 65 5 85
1984262N14259 1984 83 EP MM ODILE 1984-09-20 09:00:00 TS 16.6052 -103.850 main 190 183 P_________P___ EP161984 16.6075 -103.850 HU 65 1 16.5984 -103.848 3 65 5 90
1984262N14259 1984 83 EP MM ODILE 1984-09-20 12:00:00 TS 16.6000 -103.600 65 hurdat_epa main 183 176 O_________O___ hurdat_epa EP161984 16.6000 -103.600 HU 65 1 16.6000 -103.600 4 65 4 90
1984262N14259 1984 83 EP MM ODILE 1984-09-20 15:00:00 TS 16.6047 -103.399 main 176 169 P_________P___ EP161984 16.5999 -103.408 HU 65 1 16.6192 -103.374 4 65 4 89
1984262N14259 1984 83 EP MM ODILE 1984-09-20 18:00:00 TS 16.6074 -103.184 65 hurdat_epa main 169 158 O_________P___ hurdat_epa EP161984 16.6000 -103.200 HU 65 1 16.6297 -103.138 4 65 5 88
1984262N14259 1984 83 EP MM ODILE 1984-09-20 21:00:00 TS 16.6176 -102.913 main 158 148 P_________P___ EP161984 16.6150 -102.923 HU 65 1 16.6254 -102.883 4 65 6 91
1984262N14259 1984 83 EP MM ODILE 1984-09-21 00:00:00 TS 16.6000 -102.600 65 hurdat_epa main 148 143 O_________O___ hurdat_epa EP161984 16.6000 -102.600 HU 65 1 16.6000 -102.600 4 65 6 99
1984262N14259 1984 83 EP MM ODILE 1984-09-21 03:00:00 TS 16.5133 -102.253 main 148 131 P_________P___ EP161984 16.5075 -102.257 HU 65 1 16.5307 -102.238 4 65 7 106
1984262N14259 1984 83 EP MM ODILE 1984-09-21 06:00:00 TS 16.4108 -101.889 65 hurdat_epa main 131 113 O_________P___ hurdat_epa EP161984 16.4000 -101.900 HU 65 1 16.4431 -101.855 4 65 7 104
1984262N14259 1984 83 EP MM ODILE 1984-09-21 09:00:00 TS 16.3354 -101.514 main 119 109 P_________P___ EP161984 16.3276 -101.520 HU 65 1 16.3589 -101.494 4 65 7 100
1984262N14259 1984 83 EP MM ODILE 1984-09-21 12:00:00 TS 16.3000 -101.200 65 hurdat_epa main 109 102 O_________O___ hurdat_epa EP161984 16.3000 -101.200 HU 65 1 16.3000 -101.200 4 65 5 91
1984262N14259 1984 83 EP MM ODILE 1984-09-21 15:00:00 TS 16.3257 -100.995 main 102 89 P_________P___ EP161984 16.3424 -101.005 HU 72 1 16.2755 -100.964 4 68 3 77
1984262N14259 1984 83 EP MM ODILE 1984-09-21 18:00:00 TS 16.3705 -100.876 80 hurdat_epa main 89 84 O_________P___ hurdat_epa EP161984 16.4000 -100.900 HU 80 1 16.2819 -100.806 4 72 2 73
1984262N14259 1984 83 EP MM ODILE 1984-09-21 21:00:00 TS 16.3806 -100.812 main 84 84 P_________P___ EP161984 16.4000 -100.835 HU 80 1 16.3224 -100.745 4 76 1 68
1984262N14259 1984 83 EP MM ODILE 1984-09-22 00:00:00 TS 16.4000 -100.800 80 hurdat_epa main 84 81 O_________O___ hurdat_epa EP161984 16.4000 -100.800 HU 80 1 16.4000 -100.800 4 80 1 56
1984262N14259 1984 83 EP MM ODILE 1984-09-22 03:00:00 TS 16.4189 -100.748 main 81 74 P_________P___ EP161984 16.4122 -100.645 HU 85 2 16.4390 -101.057 4 81 1 324
1984262N14259 1984 83 EP MM ODILE 1984-09-22 06:00:00 TS 16.5059 -100.878 90 hurdat_epa main 79 70 O_________P___ hurdat_epa EP161984 16.5000 -100.700 HU 90 2 16.5237 -101.413 4 82 7 292
1984262N14259 1984 83 EP MM ODILE 1984-09-22 09:00:00 TS 16.6867 -101.447 main 74 74 P_________P___ EP161984 16.6835 -101.342 HU 87 2 16.6963 -101.763 4 83 12 295
1984262N14259 1984 83 EP MM ODILE 1984-09-22 12:00:00 TS 17.0000 -102.000 85 hurdat_epa main 84 54 O_________O___ hurdat_epa EP161984 17.0000 -102.000 HU 85 2 17.0000 -102.000 4 85 10 321
1984262N14259 1984 83 EP MM ODILE 1984-09-22 15:00:00 TS 17.4607 -102.102 main 47 0 P_________P___ EP161984 17.4622 -102.098 HU 67 1 17.4564 -102.055 4 67 10 1
1984262N14259 1984 83 EP MM ODILE 1984-09-22 18:00:00 TS 18.0000 -102.000 50 hurdat_epa main 0 0 O_________O___ hurdat_epa EP161984 18.0000 -102.000 TS 50 0 18.0000 -102.000 2 50 11 7
1984262N14259 1984 83 EP MM ODILE 1984-09-22 21:00:00 TS 18.5126 -101.967 main 0 0 P_____________ EP161984 18.5126 -101.967 TS 37 0 2 10 1
1984262N14259 1984 83 EP MM ODILE 1984-09-23 00:00:00 ET 19.0000 -102.000 25 hurdat_epa main 0 O_____________ hurdat_epa EP161984 19.0000 -102.000 ET 25 -4 10 355

IBTrACS Databaseについて

本データベースは、米国NOAAが公開する1842年以降の世界の熱帯低気圧のベストトラックデータアーカイブInternational Best Track Archive for Climate Stewardship (IBTrACS)を、ウェブで閲覧しやすい形式に変換したものです。

最終更新日:2021-12-08